Time;durP1;ratioP1;P1;durP2;ratioP2;P2;SDS_P1;SDS_P2;PMS_P1;PMS_P2;Temp;Humidity;BMP_temperature;BMP_pressure;BME280_temperature;BME280_humidity;BME280_pressure;Samples;Min_cycle;Max_cycle;Signal;HPM_P1;HPM_P2
2022/07/19 00:02:04;;;;;;;5.03;3.22;;;;;;;21.63;97.55;95018.06;5036357;28;20025;-91
2022/07/19 00:04:30;;;;;;;4.85;3.30;;;;;;;21.64;97.66;95014.31;5035134;28;20025;-91
2022/07/19 00:06:58;;;;;;;6.72;3.35;;;;;;;21.68;98.91;95006.47;5036416;28;20022;-91
2022/07/19 00:09:26;;;;;;;6.72;3.30;;;;;;;21.75;98.13;95006.75;5036480;28;20104;-91
2022/07/19 00:11:53;;;;;;;7.63;3.20;;;;;;;21.82;94.50;95006.22;5036331;28;20159;-92
2022/07/19 00:14:18;;;;;;;5.72;3.47;;;;;;;21.88;95.40;95010.28;5036250;28;20029;-91
2022/07/19 00:16:44;;;;;;;6.90;2.97;;;;;;;21.57;96.92;95014.00;5036320;28;20032;-91
2022/07/19 00:19:09;;;;;;;4.55;3.05;;;;;;;21.47;95.67;95012.50;5035213;28;20029;-92
2022/07/19 00:21:35;;;;;;;5.18;3.00;;;;;;;21.38;95.15;95004.53;5035188;28;20021;-91
2022/07/19 00:24:00;;;;;;;7.55;3.10;;;;;;;21.39;94.99;95013.34;5030934;28;20080;-91
2022/07/19 00:26:31;;;;;;;5.07;2.67;;;;;;;21.63;94.40;95006.63;5035262;28;20108;-91
2022/07/19 00:28:57;;;;;;;7.68;3.58;;;;;;;21.28;95.25;95011.03;5019109;28;20064;-92
2022/07/19 00:31:24;;;;;;;6.07;3.22;;;;;;;21.08;93.32;95011.72;5018844;28;20025;-91
2022/07/19 00:33:49;;;;;;;7.35;3.08;;;;;;;21.31;92.57;95009.63;5035114;28;20029;-91
2022/07/19 00:36:18;;;;;;;10.38;3.38;;;;;;;21.22;90.53;95014.19;5035329;28;20025;-91
2022/07/19 00:38:43;;;;;;;7.38;3.20;;;;;;;21.08;93.83;95007.19;5022120;28;20427;-91
2022/07/19 00:41:09;;;;;;;4.47;3.15;;;;;;;21.28;90.43;95004.91;5038942;28;20025;-91
2022/07/19 00:43:35;;;;;;;5.07;2.60;;;;;;;21.31;90.82;95010.38;5039556;28;20025;-92
2022/07/19 00:46:00;;;;;;;5.30;2.92;;;;;;;21.00;95.33;95010.63;5022299;28;20315;-92
2022/07/19 00:48:26;;;;;;;11.73;2.97;;;;;;;20.84;95.26;95018.38;5038621;28;20124;-92
2022/07/19 00:50:52;;;;;;;5.10;2.95;;;;;;;20.81;94.28;95013.69;5038395;28;20431;-92
2022/07/19 00:53:21;;;;;;;10.02;3.38;;;;;;;20.66;97.55;95013.06;5022141;28;20026;-91
2022/07/19 00:55:48;;;;;;;9.65;3.28;;;;;;;20.60;99.23;95014.31;5022158;28;20029;-91
2022/07/19 00:58:16;;;;;;;5.97;3.00;;;;;;;20.49;94.85;95019.19;5022208;28;20022;-91
2022/07/19 01:00:42;;;;;;;4.88;3.33;;;;;;;20.57;99.26;95010.38;5021917;28;20025;-91
2022/07/19 01:03:08;;;;;;;6.53;3.10;;;;;;;20.48;100.00;95010.41;5038142;28;20030;-91
2022/07/19 01:05:34;;;;;;;3.97;2.83;;;;;;;20.38;100.00;95012.59;5038194;28;20049;-91
2022/07/19 01:07:59;;;;;;;11.30;2.88;;;;;;;20.47;100.00;95014.16;5038187;28;20346;-92
2022/07/19 01:10:26;;;;;;;6.43;2.88;;;;;;;20.62;100.00;95012.91;5039249;28;20032;-92
2022/07/19 01:12:55;;;;;;;6.03;3.03;;;;;;;20.75;100.00;95021.78;5038093;28;20033;-92
2022/07/19 01:15:27;;;;;;;4.82;2.70;;;;;;;20.65;100.00;95011.47;5038995;28;20036;-92
2022/07/19 01:17:53;;;;;;;4.68;2.95;;;;;;;20.87;98.30;95005.22;5038080;28;20079;-92
2022/07/19 01:20:23;;;;;;;7.95;2.83;;;;;;;20.91;95.87;95008.00;5039061;28;20378;-92
2022/07/19 01:22:48;;;;;;;6.25;3.00;;;;;;;20.95;94.63;95000.97;5021901;28;20061;-91
2022/07/19 01:25:17;;;;;;;5.97;3.28;;;;;;;20.52;99.85;95010.56;5038064;28;20060;-91
2022/07/19 01:27:48;;;;;;;10.43;3.40;;;;;;;20.48;100.00;95007.72;5022140;28;20025;-92
2022/07/19 01:30:20;;;;;;;5.57;3.17;;;;;;;20.71;99.83;95014.75;5037859;28;20076;-92
2022/07/19 01:32:45;;;;;;;5.97;3.30;;;;;;;20.79;98.69;95008.63;5037816;28;20022;-92
2022/07/19 01:35:11;;;;;;;4.63;3.25;;;;;;;20.60;99.90;95008.97;5037623;28;20346;-91
2022/07/19 01:37:42;;;;;;;5.32;3.58;;;;;;;20.46;100.00;95003.84;5037565;28;20097;-92
2022/07/19 01:40:09;;;;;;;9.25;3.50;;;;;;;20.09;100.00;95004.16;5037613;28;20025;-91
2022/07/19 01:42:35;;;;;;;9.90;3.47;;;;;;;20.16;100.00;95004.47;5037505;28;20033;-91
2022/07/19 01:45:01;;;;;;;6.47;3.47;;;;;;;20.26;100.00;94999.94;5037758;28;20156;-92
2022/07/19 01:47:29;;;;;;;8.52;3.67;;;;;;;20.21;100.00;94998.22;5038786;28;20029;-91
2022/07/19 01:49:57;;;;;;;6.50;3.60;;;;;;;20.28;100.00;94997.75;5021240;28;20033;-91
2022/07/19 01:52:23;;;;;;;6.10;3.00;;;;;;;20.52;100.00;94996.47;5038426;28;20037;-91
2022/07/19 01:54:48;;;;;;;6.63;3.50;;;;;;;20.49;100.00;94989.91;5037208;28;20030;-91
2022/07/19 01:57:17;;;;;;;7.57;3.83;;;;;;;20.31;100.00;94991.78;5037139;28;20029;-92
2022/07/19 01:59:42;;;;;;;7.40;3.67;;;;;;;20.42;100.00;94993.03;5037125;28;20037;-91
2022/07/19 02:02:08;;;;;;;4.63;3.28;;;;;;;20.55;100.00;94993.19;5020879;28;20028;-92
2022/07/19 02:04:33;;;;;;;7.53;3.55;;;;;;;20.54;100.00;94989.72;5037111;28;20028;-91
2022/07/19 02:06:59;;;;;;;9.30;4.05;;;;;;;20.29;100.00;94984.09;5038116;28;20112;-91
2022/07/19 02:09:24;;;;;;;6.07;3.33;;;;;;;20.43;100.00;94991.13;5020800;28;20025;-92
2022/07/19 02:11:50;;;;;;;5.22;3.70;;;;;;;20.47;100.00;94992.88;5037452;28;20029;-91
2022/07/19 02:14:16;;;;;;;4.90;3.67;;;;;;;20.54;100.00;94989.72;5036613;28;20033;-92
2022/07/19 02:16:52;;;;;;;;;;;;;;;;;;;;;
2022/07/19 02:19:20;;;;;;;6.20;3.30;;;;;;;20.43;100.00;94986.63;5037076;28;20028;-92
2022/07/19 02:21:50;;;;;;;6.10;3.50;;;;;;;20.30;100.00;94990.22;5036890;28;20079;-92
2022/07/19 02:24:15;;;;;;;6.45;3.80;;;;;;;20.52;100.00;94985.84;5037043;28;20025;-91
2022/07/19 02:26:44;;;;;;;5.35;3.70;;;;;;;20.64;100.00;94991.28;5020309;28;20028;-91
2022/07/19 02:29:09;;;;;;;6.13;3.70;;;;;;;20.20;100.00;94989.44;5036554;28;20056;-91
2022/07/19 02:31:35;;;;;;;6.50;3.60;;;;;;;20.05;100.00;94984.59;5036587;28;20030;-90
2022/07/19 02:34:01;;;;;;;7.47;3.72;;;;;;;19.99;100.00;94986.63;5036350;28;20411;-91
2022/07/19 02:36:29;;;;;;;8.50;3.72;;;;;;;19.92;100.00;94987.06;5036342;28;20033;-91
2022/07/19 02:38:55;;;;;;;6.03;3.40;;;;;;;19.94;100.00;94986.78;5020514;28;20030;-91
2022/07/19 02:41:21;;;;;;;6.28;3.90;;;;;;;19.79;100.00;94987.97;5036425;28;20032;-92
2022/07/19 02:43:46;;;;;;;8.02;3.92;;;;;;;19.95;100.00;94983.03;5019820;28;20446;-91
2022/07/19 02:46:12;;;;;;;6.53;3.33;;;;;;;20.14;100.00;94985.38;5036294;28;20093;-91
2022/07/19 02:48:37;;;;;;;5.80;3.65;;;;;;;20.32;100.00;94988.03;5036206;28;20104;-92
2022/07/19 02:51:03;;;;;;;6.65;3.55;;;;;;;20.30;100.00;94988.34;5037373;28;20029;-91
2022/07/19 02:53:28;;;;;;;9.98;3.70;;;;;;;20.05;100.00;94988.03;5036065;28;20026;-92
2022/07/19 02:55:54;;;;;;;5.50;3.63;;;;;;;19.91;100.00;94993.47;5036184;28;20040;-92
2022/07/19 02:58:19;;;;;;;6.68;3.78;;;;;;;19.91;100.00;95000.66;5037236;28;20029;-91
2022/07/19 03:00:45;;;;;;;7.60;4.35;;;;;;;19.92;100.00;94992.41;5019040;28;20029;-90
2022/07/19 03:05:56;;;;;;;7.40;4.25;;;;;;;19.88;100.00;94996.75;5036141;28;20032;-91
2022/07/19 03:08:21;;;;;;;6.05;3.63;;;;;;;19.88;100.00;94991.44;5036296;28;20120;-90
2022/07/19 03:10:47;;;;;;;7.88;4.00;;;;;;;20.05;100.00;94992.56;5035816;28;20098;-91
2022/07/19 03:13:12;;;;;;;6.32;3.83;;;;;;;20.15;100.00;95002.91;5019293;28;20063;-90
2022/07/19 03:15:38;;;;;;;6.15;4.47;;;;;;;20.23;100.00;95003.19;5018285;28;20038;-90
2022/07/19 03:18:04;;;;;;;6.63;4.10;;;;;;;20.31;100.00;94999.75;5017970;28;20163;-91
2022/07/19 03:20:32;;;;;;;10.40;4.18;;;;;;;20.39;100.00;95004.31;5009239;28;20025;-91
2022/07/19 03:22:57;;;;;;;5.18;3.80;;;;;;;20.39;100.00;95006.97;4999889;28;20030;-90
2022/07/19 03:25:23;;;;;;;5.63;4.20;;;;;;;20.54;100.00;95011.03;4999730;28;20077;-91
2022/07/19 03:27:51;;;;;;;7.32;4.47;;;;;;;20.64;100.00;95015.22;4999890;28;20083;-90
2022/07/19 03:30:19;;;;;;;6.30;4.47;;;;;;;20.74;100.00;95014.91;5015764;28;20026;-90
2022/07/19 03:32:45;;;;;;;6.93;4.45;;;;;;;20.72;100.00;95011.00;5000229;28;20061;-90
2022/07/19 03:35:14;;;;;;;4.88;3.90;;;;;;;20.88;100.00;95008.63;5015678;28;20053;-90
2022/07/19 03:37:39;;;;;;;7.53;4.18;;;;;;;20.58;100.00;95008.50;5000367;28;20118;-90
2022/07/19 03:40:05;;;;;;;7.72;4.25;;;;;;;20.24;100.00;95004.78;4999937;28;20049;-90
2022/07/19 03:42:31;;;;;;;8.35;4.30;;;;;;;20.42;98.66;95008.22;4999523;28;20033;-90
2022/07/19 03:44:56;;;;;;;7.55;3.97;;;;;;;20.45;99.91;95012.94;4999516;28;20080;-91
2022/07/19 03:47:21;;;;;;;6.88;4.18;;;;;;;20.51;100.00;95005.53;4999929;28;20025;-90
2022/07/19 03:49:47;;;;;;;6.43;4.57;;;;;;;20.39;100.00;95012.28;5015621;28;20050;-87
2022/07/19 03:52:20;;;;;;;9.27;4.05;;;;;;;20.51;100.00;95021.50;5024140;28;20030;-87
2022/07/19 03:54:45;;;;;;;7.03;4.50;;;;;;;20.45;100.00;95016.34;5015840;28;20084;-87
2022/07/19 03:57:11;;;;;;;9.90;4.60;;;;;;;20.18;100.00;95014.81;5016733;28;20025;-87
2022/07/19 03:59:36;;;;;;;5.97;4.10;;;;;;;19.95;100.00;95022.13;5016874;28;20084;-87
2022/07/19 04:02:02;;;;;;;5.55;4.22;;;;;;;19.84;100.00;95021.59;5016819;28;20026;-87
2022/07/19 04:04:27;;;;;;;7.05;4.55;;;;;;;19.71;100.00;95031.28;5015562;28;20022;-87
2022/07/19 04:06:53;;;;;;;8.68;4.05;;;;;;;19.82;100.00;95037.09;5015586;28;20053;-87
2022/07/19 04:09:18;;;;;;;8.75;3.78;;;;;;;20.11;100.00;95036.53;5015964;28;20029;-87
2022/07/19 04:11:44;;;;;;;7.10;4.43;;;;;;;19.82;100.00;95034.44;5016756;28;20026;-87
2022/07/19 04:14:09;;;;;;;6.78;4.18;;;;;;;19.83;100.00;95042.09;5018989;28;20179;-87
2022/07/19 04:16:35;;;;;;;7.38;4.35;;;;;;;19.66;100.00;95039.41;5019273;28;20022;-86
2022/07/19 04:19:00;;;;;;;6.63;3.97;;;;;;;19.64;100.00;95043.13;5019932;28;20028;-87
2022/07/19 04:21:28;;;;;;;8.95;4.47;;;;;;;19.69;100.00;95036.13;5002952;28;20021;-87
2022/07/19 04:23:53;;;;;;;7.05;3.95;;;;;;;19.69;100.00;95041.44;5018843;28;20049;-87
2022/07/19 04:26:18;;;;;;;7.22;4.15;;;;;;;19.93;100.00;95043.72;5019106;28;20022;-87
2022/07/19 04:28:44;;;;;;;6.22;4.10;;;;;;;20.01;100.00;95042.97;5002900;28;20026;-86
2022/07/19 04:31:09;;;;;;;5.97;3.83;;;;;;;20.20;100.00;95042.63;5018836;28;20083;-87
2022/07/19 04:33:35;;;;;;;6.88;4.13;;;;;;;20.23;100.00;95048.44;5018761;28;20104;-86
2022/07/19 04:36:00;;;;;;;6.22;3.88;;;;;;;20.15;100.00;95037.47;5019788;28;20022;-86
2022/07/19 04:38:26;;;;;;;6.50;4.00;;;;;;;20.10;100.00;95040.31;5018792;28;20026;-87
2022/07/19 04:40:51;;;;;;;9.57;3.67;;;;;;;20.03;100.00;95040.75;5018897;28;20026;-86
2022/07/19 04:43:24;;;;;;;6.35;4.13;;;;;;;19.97;100.00;95046.53;5019363;28;20414;-87
2022/07/19 04:45:50;;;;;;;7.82;4.10;;;;;;;19.97;100.00;95049.19;5019922;28;20342;-87
2022/07/19 04:48:15;;;;;;;10.13;3.90;;;;;;;20.14;100.00;95049.22;5019856;28;20022;-87
2022/07/19 04:50:41;;;;;;;5.72;4.30;;;;;;;20.42;100.00;95050.78;5018638;28;20033;-88
2022/07/19 04:53:07;;;;;;;7.15;4.38;;;;;;;20.36;100.00;95055.47;5018574;28;20414;-87
2022/07/19 04:55:32;;;;;;;5.72;4.10;;;;;;;20.51;100.00;95058.75;5018678;28;20057;-87
2022/07/19 04:57:58;;;;;;;7.30;4.25;;;;;;;20.36;100.00;95052.81;5018215;28;20053;-87
2022/07/19 05:00:23;;;;;;;9.15;4.30;;;;;;;20.35;100.00;95051.25;5018161;28;20030;-87
2022/07/19 05:02:49;;;;;;;9.95;4.35;;;;;;;20.27;100.00;95055.47;5019475;28;20108;-86
2022/07/19 05:05:14;;;;;;;7.00;4.22;;;;;;;20.55;100.00;95052.50;5025892;28;20025;-86
2022/07/19 05:07:41;;;;;;;6.75;4.28;;;;;;;20.49;100.00;95057.19;5038745;28;20044;-85
2022/07/19 05:10:07;;;;;;;7.28;4.22;;;;;;;20.75;100.00;95052.97;5038085;28;20078;-86
2022/07/19 05:12:35;;;;;;;8.85;4.30;;;;;;;21.07;100.00;95050.09;5021870;28;20032;-86
2022/07/19 05:15:03;;;;;;;6.53;4.22;;;;;;;21.21;100.00;95053.34;5035452;28;20071;-86
2022/07/19 05:17:31;;;;;;;6.90;4.10;;;;;;;21.45;100.00;95060.03;5038360;28;20068;-87
2022/07/19 05:23:39;;;;;;;;;;;;;;;;;;;;;
2022/07/19 05:26:35;;;;;;;;;;;;;;;;;;;;;
2022/07/19 05:29:15;;;;;;;6.78;4.10;;;;;;;21.76;100.00;95064.31;5018933;28;20026;-86
2022/07/19 05:31:41;;;;;;;4.75;3.72;;;;;;;21.89;100.00;95057.19;5034162;28;20030;-86
2022/07/19 05:34:16;;;;;;;;;;;;;;;;;;;;;
2022/07/19 05:36:54;;;;;;;;;;;;;;;;;;;;;
2022/07/19 05:39:22;;;;;;;6.90;4.15;;;;;;;21.92;100.00;95058.41;5017924;28;20342;-87
2022/07/19 05:41:48;;;;;;;6.28;4.00;;;;;;;22.11;100.00;95064.13;5018740;28;20060;-87
2022/07/19 05:44:18;;;;;;;5.45;4.30;;;;;;;22.27;100.00;95066.97;5018623;28;20096;-86
2022/07/19 05:46:56;;;;;;;6.00;4.25;;;;;;;22.40;100.00;95073.19;5001235;28;20032;-86
2022/07/19 05:49:31;;;;;;;6.30;3.95;;;;;;;22.39;100.00;95060.94;5002582;28;20072;-87
2022/07/19 05:51:58;;;;;;;7.00;4.00;;;;;;;22.51;100.00;95070.91;5018111;28;20087;-87
2022/07/19 05:54:24;;;;;;;6.20;3.88;;;;;;;22.66;100.00;95066.84;5001219;28;20105;-86
2022/07/19 05:56:49;;;;;;;5.30;3.90;;;;;;;22.88;97.79;95068.41;5001166;28;20459;-86
2022/07/19 05:59:15;;;;;;;8.75;3.83;;;;;;;22.96;96.42;95072.09;5001051;28;20080;-86
2022/07/19 06:01:40;;;;;;;7.43;3.78;;;;;;;23.18;94.77;95075.50;5000640;28;20033;-87
2022/07/19 06:04:06;;;;;;;6.55;3.90;;;;;;;23.17;90.64;95076.59;5016966;28;20335;-86
2022/07/19 06:06:33;;;;;;;4.18;3.50;;;;;;;23.25;92.75;95078.41;5000373;28;20028;-87
2022/07/19 06:09:07;;;;;;;5.03;3.75;;;;;;;23.55;93.69;95074.78;5000673;28;20541;-86
2022/07/19 06:11:33;;;;;;;4.53;3.58;;;;;;;23.21;91.26;95077.50;5001425;28;20032;-87
2022/07/19 06:13:59;;;;;;;5.72;3.70;;;;;;;23.68;90.08;95078.28;5016787;28;20029;-87
2022/07/19 06:16:24;;;;;;;7.20;4.00;;;;;;;23.79;87.82;95070.56;5000813;28;20017;-87
2022/07/19 06:18:50;;;;;;;4.80;3.58;;;;;;;23.42;88.67;95074.00;5000802;28;20116;-86
2022/07/19 06:21:18;;;;;;;6.30;3.92;;;;;;;23.77;88.87;95070.13;5016596;28;20021;-86
2022/07/19 06:23:45;;;;;;;7.15;3.88;;;;;;;24.07;87.29;95069.91;5016464;28;20026;-86
2022/07/19 06:26:11;;;;;;;4.95;3.65;;;;;;;24.23;86.11;95067.31;5000686;28;20347;-86
2022/07/19 06:28:37;;;;;;;6.10;3.38;;;;;;;24.37;82.93;95066.94;5016466;28;20076;-86
2022/07/19 06:31:07;;;;;;;8.52;4.40;;;;;;;23.89;87.90;95069.34;5016684;28;20037;-90
2022/07/19 06:33:35;;;;;;;6.65;4.32;;;;;;;24.13;98.47;95072.03;5017615;28;20124;-87
2022/07/19 06:36:00;;;;;;;5.93;3.22;;;;;;;24.56;91.02;95074.38;5018607;28;20392;-87
2022/07/19 06:38:26;;;;;;;7.35;3.25;;;;;;;24.65;90.21;95074.22;5016661;28;20048;-86
2022/07/19 06:40:52;;;;;;;4.32;3.50;;;;;;;24.73;87.23;95075.97;5016342;28;20021;-86
2022/07/19 06:43:17;;;;;;;5.38;3.70;;;;;;;24.83;88.62;95066.72;5000073;28;20026;-86
2022/07/19 06:45:43;;;;;;;7.68;4.07;;;;;;;24.89;90.35;95065.34;5000061;28;20072;-86
2022/07/19 06:48:08;;;;;;;5.00;3.80;;;;;;;24.76;91.79;95061.13;5016205;28;20022;-87
2022/07/19 06:50:34;;;;;;;6.20;3.83;;;;;;;24.27;100.00;95058.25;5016439;28;20026;-86
2022/07/19 06:53:00;;;;;;;5.90;3.72;;;;;;;24.46;93.19;95064.13;5016009;28;20439;-86
2022/07/19 06:55:25;;;;;;;6.82;3.72;;;;;;;24.94;87.39;95065.06;5016001;28;20040;-86
2022/07/19 06:57:51;;;;;;;6.03;3.58;;;;;;;25.19;86.78;95066.88;4999887;28;20343;-86
2022/07/19 07:00:16;;;;;;;5.28;3.38;;;;;;;25.05;87.41;95061.91;5017126;28;20030;-86
2022/07/19 07:02:42;;;;;;;9.13;3.88;;;;;;;25.12;87.19;95072.81;5015953;28;20109;-87
2022/07/19 07:05:09;;;;;;;8.48;4.60;;;;;;;25.18;84.54;95070.66;5000045;28;20037;-86
2022/07/19 07:07:34;;;;;;;5.78;3.45;;;;;;;25.40;74.63;95061.25;4999737;28;20127;-86
2022/07/19 07:10:01;;;;;;;15.90;3.92;;;;;;;25.53;75.34;95061.97;5015821;28;20491;-86
2022/07/19 07:12:27;;;;;;;5.65;3.72;;;;;;;25.46;83.13;95072.47;4999932;28;20041;-86
2022/07/19 07:14:53;;;;;;;5.13;3.00;;;;;;;25.75;68.73;95070.50;5016764;28;20474;-86
2022/07/19 07:17:18;;;;;;;3.35;2.53;;;;;;;25.76;58.62;95072.84;4999256;28;20061;-86
2022/07/19 07:19:43;;;;;;;3.97;2.63;;;;;;;25.86;62.84;95073.47;4999373;28;20041;-86
2022/07/19 07:22:09;;;;;;;5.60;2.90;;;;;;;25.88;62.94;95069.28;5016028;28;20033;-86
2022/07/19 07:24:34;;;;;;;5.40;2.40;;;;;;;26.08;62.30;95075.50;5016782;28;20052;-85
2022/07/19 07:27:00;;;;;;;10.73;2.90;;;;;;;26.34;58.10;95071.47;5015721;28;20041;-87
2022/07/19 07:29:26;;;;;;;3.60;2.45;;;;;;;26.31;55.51;95077.53;5015921;28;20033;-86
2022/07/19 07:31:51;;;;;;;4.25;2.35;;;;;;;26.39;56.79;95068.50;5016727;28;20034;-86
2022/07/19 07:34:17;;;;;;;6.43;2.30;;;;;;;26.21;56.14;95068.13;5016621;28;20041;-86
2022/07/19 07:36:44;;;;;;;5.80;2.15;;;;;;;26.03;53.36;95072.28;5015626;28;20030;-86
2022/07/19 07:39:10;;;;;;;8.45;2.47;;;;;;;26.45;55.92;95069.00;5016046;28;20069;-85
2022/07/19 07:41:36;;;;;;;6.63;2.38;;;;;;;26.68;53.87;95071.00;5014733;28;20034;-86
2022/07/19 07:44:01;;;;;;;3.03;2.00;;;;;;;26.95;51.55;95063.84;5015408;28;20419;-85
2022/07/19 07:46:29;;;;;;;3.55;2.13;;;;;;;27.03;52.23;95072.81;5000863;28;20431;-86
2022/07/19 07:48:54;;;;;;;7.30;2.30;;;;;;;27.00;52.15;95062.78;5019537;28;20160;-86
2022/07/19 07:51:20;;;;;;;2.00;1.70;;;;;;;27.02;50.83;95065.88;5019934;28;20128;-86
2022/07/19 07:53:45;;;;;;;5.20;2.20;;;;;;;27.01;52.06;95064.31;5020355;28;20037;-86
2022/07/19 07:56:11;;;;;;;6.25;2.30;;;;;;;27.00;49.19;95059.31;5019371;28;20026;-86
2022/07/19 07:58:37;;;;;;;4.63;2.10;;;;;;;27.15;52.13;95065.72;5019307;28;20428;-85
2022/07/19 08:01:02;;;;;;;6.60;2.10;;;;;;;27.30;52.34;95067.53;5019125;28;20021;-86
2022/07/19 08:03:28;;;;;;;4.20;2.13;;;;;;;26.81;50.45;95066.22;5003287;28;20327;-86
2022/07/19 08:05:53;;;;;;;6.00;2.28;;;;;;;27.28;50.26;95058.28;5019160;28;20022;-86
2022/07/19 08:08:21;;;;;;;3.10;2.28;;;;;;;27.37;48.85;95062.28;5020355;28;20041;-86
2022/07/19 08:10:47;;;;;;;15.15;2.33;;;;;;;27.32;50.91;95057.19;5003181;28;20044;-86
2022/07/19 08:13:12;;;;;;;3.10;2.00;;;;;;;27.19;49.05;95055.81;5019018;28;20096;-86
2022/07/19 08:15:38;;;;;;;6.22;2.25;;;;;;;26.89;48.24;95051.84;5002738;28;20026;-85
2022/07/19 08:18:07;;;;;;;4.57;1.88;;;;;;;26.71;48.97;95050.69;5020124;28;20048;-87
2022/07/19 08:20:33;;;;;;;6.20;2.22;;;;;;;26.81;47.97;95048.22;5020269;28;20423;-86
2022/07/19 08:22:58;;;;;;;2.72;1.83;;;;;;;27.19;49.88;95053.91;5002602;28;20022;-87
2022/07/19 08:25:24;;;;;;;6.45;1.92;;;;;;;27.15;46.15;95049.59;5018852;28;20022;-87
2022/07/19 08:27:49;;;;;;;3.28;1.88;;;;;;;27.52;46.88;95054.44;5018947;28;20124;-85
2022/07/19 08:30:15;;;;;;;4.47;1.70;;;;;;;27.54;46.17;95052.19;5002276;28;20343;-86
2022/07/19 08:32:43;;;;;;;3.83;1.90;;;;;;;27.45;45.04;95048.94;5018488;28;20033;-86
2022/07/19 08:35:09;;;;;;;4.85;1.90;;;;;;;27.74;46.74;95055.56;5002424;28;20037;-86
2022/07/19 08:37:35;;;;;;;4.70;1.67;;;;;;;27.96;46.74;95047.03;5002459;28;20032;-89
2022/07/19 08:40:01;;;;;;;4.53;1.80;;;;;;;27.78;44.09;95051.00;5018761;28;20026;-85
2022/07/19 08:42:27;;;;;;;3.97;1.50;;;;;;;27.79;44.30;95057.94;5018518;28;20386;-85
2022/07/19 08:44:53;;;;;;;6.38;1.70;;;;;;;27.73;43.23;95061.31;5018387;28;20022;-86
2022/07/19 08:47:20;;;;;;;3.90;1.70;;;;;;;27.95;44.03;95054.31;5002594;28;20061;-85
2022/07/19 08:49:46;;;;;;;2.22;1.80;;;;;;;28.17;44.03;95055.41;5018382;28;20072;-86
2022/07/19 08:52:12;;;;;;;3.70;1.80;;;;;;;28.21;45.07;95056.25;5002484;28;20026;-86
2022/07/19 08:54:43;;;;;;;2.90;1.80;;;;;;;28.27;44.14;95054.03;5018084;28;20022;-86
2022/07/19 08:59:52;;;;;;;8.70;1.80;;;;;;;28.04;42.91;95049.47;5017845;28;20469;-87
2022/07/19 09:02:17;;;;;;;3.28;1.60;;;;;;;28.08;42.89;95052.97;5002633;28;20021;-86
2022/07/19 09:04:45;;;;;;;5.55;1.77;;;;;;;28.25;42.95;95037.44;5019117;28;20057;-88
2022/07/19 09:07:18;;;;;;;3.95;1.70;;;;;;;28.65;43.34;95036.00;5018392;28;20060;-87
2022/07/19 09:09:44;;;;;;;;;;;;;;;28.52;42.75;95048.16;5019926;28;20347;-86
2022/07/19 09:12:09;;;;;;;4.67;1.37;;;;;;;28.63;42.63;95040.97;5019180;28;19920;-86
2022/07/19 09:14:36;;;;;;;3.55;1.55;;;;;;;28.37;41.88;95041.84;5001402;28;20800;-86
2022/07/19 09:17:06;;;;;;;3.47;1.80;;;;;;;28.40;41.47;95045.69;5017886;28;20519;-87
2022/07/19 09:19:39;;;;;;;2.45;1.58;;;;;;;28.54;41.51;95048.56;5018017;28;20037;-86
2022/07/19 09:22:10;;;;;;;2.67;1.45;;;;;;;28.79;42.76;95038.09;5001711;28;20053;-85
2022/07/19 09:24:37;;;;;;;3.78;1.90;;;;;;;29.12;45.40;95043.03;5001872;28;20025;-86
2022/07/19 09:27:08;;;;;;;2.45;1.40;;;;;;;29.30;42.44;95040.53;5001875;28;20128;-86
2022/07/19 09:29:37;;;;;;;4.18;1.50;;;;;;;29.18;41.06;95039.63;5017626;28;20045;-86
2022/07/19 09:32:14;;;;;;;4.00;1.60;;;;;;;29.40;40.57;95039.81;5001716;28;20032;-88
2022/07/19 09:34:59;;;;;;;3.85;1.73;;;;;;;29.44;40.28;95046.06;5018027;28;20053;-87
2022/07/19 09:37:29;;;;;;;3.83;1.67;;;;;;;29.38;39.70;95041.34;5018134;28;20106;-87
2022/07/19 09:40:03;;;;;;;5.53;1.90;;;;;;;29.26;39.13;95034.28;5017440;28;20435;-86
2022/07/19 09:42:40;;;;;;;1.92;1.40;;;;;;;29.01;39.79;95034.84;5017971;28;20064;-86
2022/07/19 09:45:07;;;;;;;4.63;1.75;;;;;;;29.20;40.33;95031.19;5001540;28;20026;-86
2022/07/19 09:47:37;;;;;;;7.60;1.60;;;;;;;29.46;39.75;95030.28;5017255;28;20022;-86
2022/07/19 09:50:06;;;;;;;5.55;1.92;;;;;;;29.44;39.40;95029.09;5017188;28;20145;-87
2022/07/19 09:52:33;;;;;;;2.75;1.48;;;;;;;29.76;39.60;95028.53;5017417;28;20028;-86
2022/07/19 09:55:00;;;;;;;6.65;1.52;;;;;;;29.95;40.20;95024.81;5017022;28;20121;-87
2022/07/19 09:57:27;;;;;;;5.50;1.60;;;;;;;29.86;38.79;95022.44;5001236;28;20025;-88
2022/07/19 09:59:58;;;;;;;3.65;1.58;;;;;;;29.86;38.28;95027.84;5001434;28;20021;-88
2022/07/19 10:02:24;;;;;;;2.05;1.63;;;;;;;29.56;37.78;95020.69;5002123;28;20033;-86
2022/07/19 10:04:50;;;;;;;6.05;1.98;;;;;;;29.81;37.23;95025.50;5016343;28;20026;-87
2022/07/19 10:07:17;;;;;;;2.97;1.48;;;;;;;29.47;38.00;95018.31;5016824;28;20462;-88
2022/07/19 10:09:44;;;;;;;3.08;1.60;;;;;;;29.75;38.36;95018.88;5016891;28;20025;-88
2022/07/19 10:12:13;;;;;;;3.90;1.73;;;;;;;29.44;37.38;95021.78;5019322;28;20033;-86
2022/07/19 10:14:39;;;;;;;2.45;1.67;;;;;;;29.57;37.53;95021.47;5000679;28;20152;-86
2022/07/19 10:17:28;;;;;;;2.38;1.30;;;;;;;30.04;38.83;95010.97;5017798;28;20026;-87
2022/07/19 10:19:55;;;;;;;3.30;1.60;;;;;;;30.04;39.43;95014.47;5023025;28;20018;-87
2022/07/19 10:22:25;;;;;;;5.10;1.33;;;;;;;30.24;39.10;95008.75;5017239;28;20030;-87
2022/07/19 10:24:57;;;;;;;4.72;1.70;;;;;;;30.37;37.41;95011.13;5016803;28;20088;-87
2022/07/19 10:27:26;;;;;;;3.20;1.25;;;;;;;30.07;36.68;95020.25;5001000;28;20087;-87
2022/07/19 10:30:10;;;;;;;4.82;1.60;;;;;;;29.79;36.42;95016.22;5016414;28;20133;-87
2022/07/19 10:32:36;;;;;;;2.28;1.30;;;;;;;30.09;35.61;95015.25;5017562;28;20028;-87
2022/07/19 10:35:16;;;;;;;5.03;1.35;;;;;;;29.81;36.64;95019.31;5016595;28;20026;-87
2022/07/19 10:37:43;;;;;;;3.45;1.58;;;;;;;30.25;37.61;95013.00;5017538;28;20466;-86
2022/07/19 10:40:16;;;;;;;4.18;1.48;;;;;;;30.36;36.76;95009.59;5017473;28;20113;-88
2022/07/19 10:43:20;;;;;;;4.80;1.42;;;;;;;30.25;36.73;95014.97;5016150;28;20376;-88
2022/07/19 10:46:11;;;;;;;5.28;1.60;;;;;;;29.74;35.61;95004.63;5016419;28;20029;-87
2022/07/19 10:48:41;;;;;;;2.65;1.48;;;;;;;30.25;35.90;95009.56;5016744;28;20026;-86
2022/07/19 10:51:36;;;;;;;;;;;;;;;;;;;;;
2022/07/19 10:54:10;;;;;;;3.88;1.40;;;;;;;30.10;36.16;95011.41;5017402;28;20442;-87
2022/07/19 10:57:01;;;;;;;4.43;1.50;;;;;;;29.96;35.99;95003.97;5000415;28;20037;-87
2022/07/19 10:59:38;;;;;;;5.22;1.70;;;;;;;30.22;35.72;94997.56;5014146;28;20038;-87
2022/07/19 11:02:13;;;;;;;3.78;1.60;;;;;;;30.25;36.33;94998.75;5033028;28;20120;-87
2022/07/19 11:04:52;;;;;;;3.20;1.58;;;;;;;30.46;36.68;94990.69;5016313;28;20025;-87
2022/07/19 11:07:24;;;;;;;6.25;1.48;;;;;;;30.71;35.67;94989.28;5016310;28;20056;-86
2022/07/19 11:10:02;;;;;;;3.83;1.73;;;;;;;30.80;36.01;94991.59;5017681;28;20040;-88
2022/07/19 11:12:32;;;;;;;4.78;1.70;;;;;;;30.38;35.23;94991.06;5016489;28;20076;-88
2022/07/19 11:15:01;;;;;;;2.35;1.45;;;;;;;30.54;36.71;94979.91;5016069;28;20037;-87
2022/07/19 11:17:26;;;;;;;4.15;1.48;;;;;;;31.02;35.51;94973.47;4999982;28;20033;-87
2022/07/19 11:20:07;;;;;;;3.47;1.50;;;;;;;31.26;35.74;94982.00;5016263;28;20084;-87
2022/07/19 11:22:38;;;;;;;3.85;1.55;;;;;;;31.41;36.26;94978.13;5015775;28;20048;-86
2022/07/19 11:25:08;;;;;;;3.90;1.70;;;;;;;31.30;35.75;94978.13;4999502;28;20026;-88
2022/07/19 11:27:36;;;;;;;3.90;1.60;;;;;;;31.25;35.29;94973.13;5015924;28;20427;-87
2022/07/19 11:30:05;;;;;;;2.40;1.42;;;;;;;31.46;35.10;94971.53;4999736;28;20029;-86
2022/07/19 11:32:31;;;;;;;4.45;1.40;;;;;;;31.63;34.84;94971.91;5017353;28;20054;-87
2022/07/19 11:35:57;;;;;;;2.28;1.40;;;;;;;31.76;35.00;94964.91;5015513;28;20121;-88
2022/07/19 11:38:15;;;;;;;6.05;1.85;;;;;;;31.10;34.84;94961.47;5016210;28;20034;-87
2022/07/19 11:40:40;;;;;;;3.60;1.50;;;;;;;31.76;34.43;94969.56;5015857;28;20045;-87
2022/07/19 11:43:07;;;;;;;3.03;1.60;;;;;;;31.51;34.03;94973.09;5016102;28;20432;-88
2022/07/19 11:45:47;;;;;;;5.53;1.80;;;;;;;31.68;34.47;94969.56;5016711;28;20029;-88
2022/07/19 11:48:29;;;;;;;3.58;1.50;;;;;;;31.80;33.55;94960.31;5015840;28;20022;-87
2022/07/19 11:51:02;;;;;;;1.50;1.23;;;;;;;31.35;34.54;94962.66;5016661;28;20432;-86
2022/07/19 11:53:28;;;;;;;4.28;1.40;;;;;;;31.52;33.37;94961.09;5015561;28;20041;-87